sensor_id;sensor_type;location;lat;lon;timestamp;P1;durP1;ratioP1;P2;durP2;ratioP2
67696;SDS011;54486;51.442;6.778;2023-04-30T00:01:11;11.70;;;5.40;;
67696;SDS011;54486;51.442;6.778;2023-04-30T00:03:38;12.17;;;5.53;;
67696;SDS011;54486;51.442;6.778;2023-04-30T00:06:05;12.23;;;5.60;;
67696;SDS011;54486;51.442;6.778;2023-04-30T00:08:32;11.40;;;4.93;;
67696;SDS011;54486;51.442;6.778;2023-04-30T00:10:59;13.57;;;7.05;;
67696;SDS011;54486;51.442;6.778;2023-04-30T00:13:26;16.85;;;8.75;;
67696;SDS011;54486;51.442;6.778;2023-04-30T00:15:53;20.25;;;11.52;;
67696;SDS011;54486;51.442;6.778;2023-04-30T00:18:20;25.15;;;16.27;;
67696;SDS011;54486;51.442;6.778;2023-04-30T00:20:47;28.60;;;19.42;;
67696;SDS011;54486;51.442;6.778;2023-04-30T00:23:14;34.17;;;24.20;;
67696;SDS011;54486;51.442;6.778;2023-04-30T00:25:41;34.97;;;25.98;;
67696;SDS011;54486;51.442;6.778;2023-04-30T00:28:08;41.50;;;26.77;;
67696;SDS011;54486;51.442;6.778;2023-04-30T00:30:35;32.75;;;21.02;;
67696;SDS011;54486;51.442;6.778;2023-04-30T00:33:03;31.30;;;18.17;;
67696;SDS011;54486;51.442;6.778;2023-04-30T00:35:30;23.33;;;13.70;;
67696;SDS011;54486;51.442;6.778;2023-04-30T00:37:57;16.40;;;9.13;;
67696;SDS011;54486;51.442;6.778;2023-04-30T00:40:24;15.15;;;8.13;;
67696;SDS011;54486;51.442;6.778;2023-04-30T00:42:52;16.43;;;6.63;;
67696;SDS011;54486;51.442;6.778;2023-04-30T00:45:21;13.27;;;6.90;;
67696;SDS011;54486;51.442;6.778;2023-04-30T00:47:49;13.10;;;5.97;;
67696;SDS011;54486;51.442;6.778;2023-04-30T00:50:17;11.10;;;5.57;;
67696;SDS011;54486;51.442;6.778;2023-04-30T00:52:44;12.32;;;5.22;;
67696;SDS011;54486;51.442;6.778;2023-04-30T00:55:12;12.03;;;5.83;;
67696;SDS011;54486;51.442;6.778;2023-04-30T00:57:40;11.43;;;5.27;;
67696;SDS011;54486;51.442;6.778;2023-04-30T01:00:08;11.75;;;5.68;;
67696;SDS011;54486;51.442;6.778;2023-04-30T01:02:37;11.40;;;5.18;;
67696;SDS011;54486;51.442;6.778;2023-04-30T01:05:05;11.18;;;5.32;;
67696;SDS011;54486;51.442;6.778;2023-04-30T01:07:33;13.17;;;5.67;;
67696;SDS011;54486;51.442;6.778;2023-04-30T01:10:01;12.25;;;5.05;;
67696;SDS011;54486;51.442;6.778;2023-04-30T01:12:53;13.02;;;5.85;;
67696;SDS011;54486;51.442;6.778;2023-04-30T01:20:38;12.75;;;6.05;;
67696;SDS011;54486;51.442;6.778;2023-04-30T01:24:04;12.48;;;5.40;;
67696;SDS011;54486;51.442;6.778;2023-04-30T01:29:07;12.77;;;5.95;;
67696;SDS011;54486;51.442;6.778;2023-04-30T01:31:37;13.77;;;6.57;;
67696;SDS011;54486;51.442;6.778;2023-04-30T01:34:04;14.63;;;7.10;;
67696;SDS011;54486;51.442;6.778;2023-04-30T01:39:18;16.35;;;8.48;;
67696;SDS011;54486;51.442;6.778;2023-04-30T01:52:40;15.40;;;7.57;;
67696;SDS011;54486;51.442;6.778;2023-04-30T01:55:18;13.73;;;7.47;;
67696;SDS011;54486;51.442;6.778;2023-04-30T01:57:57;13.45;;;6.65;;
67696;SDS011;54486;51.442;6.778;2023-04-30T02:00:26;11.70;;;5.45;;
67696;SDS011;54486;51.442;6.778;2023-04-30T02:02:55;13.70;;;6.38;;
67696;SDS011;54486;51.442;6.778;2023-04-30T02:05:22;13.00;;;6.32;;
67696;SDS011;54486;51.442;6.778;2023-04-30T02:07:50;12.80;;;5.85;;
67696;SDS011;54486;51.442;6.778;2023-04-30T02:10:19;14.23;;;5.88;;
67696;SDS011;54486;51.442;6.778;2023-04-30T02:12:48;12.25;;;5.70;;
67696;SDS011;54486;51.442;6.778;2023-04-30T02:15:15;12.43;;;5.65;;
67696;SDS011;54486;51.442;6.778;2023-04-30T02:17:42;11.50;;;5.95;;
67696;SDS011;54486;51.442;6.778;2023-04-30T02:20:09;12.75;;;5.60;;
67696;SDS011;54486;51.442;6.778;2023-04-30T02:22:36;12.60;;;5.82;;
67696;SDS011;54486;51.442;6.778;2023-04-30T02:25:03;12.47;;;6.03;;
67696;SDS011;54486;51.442;6.778;2023-04-30T02:27:31;12.25;;;5.80;;
67696;SDS011;54486;51.442;6.778;2023-04-30T02:29:58;13.60;;;6.27;;
67696;SDS011;54486;51.442;6.778;2023-04-30T02:32:26;14.80;;;7.72;;
67696;SDS011;54486;51.442;6.778;2023-04-30T02:34:53;18.75;;;9.35;;
67696;SDS011;54486;51.442;6.778;2023-04-30T02:37:20;23.25;;;11.95;;
67696;SDS011;54486;51.442;6.778;2023-04-30T02:39:48;25.95;;;13.98;;
67696;SDS011;54486;51.442;6.778;2023-04-30T02:42:15;36.50;;;19.15;;
67696;SDS011;54486;51.442;6.778;2023-04-30T02:44:42;48.15;;;24.00;;
67696;SDS011;54486;51.442;6.778;2023-04-30T02:47:10;49.55;;;27.60;;
67696;SDS011;54486;51.442;6.778;2023-04-30T02:49:37;56.83;;;30.77;;
67696;SDS011;54486;51.442;6.778;2023-04-30T02:52:04;52.50;;;30.02;;
67696;SDS011;54486;51.442;6.778;2023-04-30T02:54:32;49.97;;;27.30;;
67696;SDS011;54486;51.442;6.778;2023-04-30T02:56:59;51.73;;;26.93;;
67696;SDS011;54486;51.442;6.778;2023-04-30T02:59:26;47.22;;;25.75;;
67696;SDS011;54486;51.442;6.778;2023-04-30T03:01:53;35.13;;;20.50;;
67696;SDS011;54486;51.442;6.778;2023-04-30T03:04:20;34.13;;;19.13;;
67696;SDS011;54486;51.442;6.778;2023-04-30T03:06:47;24.17;;;12.32;;
67696;SDS011;54486;51.442;6.778;2023-04-30T03:09:14;23.90;;;11.55;;
67696;SDS011;54486;51.442;6.778;2023-04-30T03:11:41;24.77;;;11.73;;
67696;SDS011;54486;51.442;6.778;2023-04-30T03:14:09;20.83;;;11.02;;
67696;SDS011;54486;51.442;6.778;2023-04-30T03:16:36;17.50;;;9.07;;
67696;SDS011;54486;51.442;6.778;2023-04-30T03:19:02;17.02;;;8.30;;
67696;SDS011;54486;51.442;6.778;2023-04-30T03:21:29;18.00;;;9.25;;
67696;SDS011;54486;51.442;6.778;2023-04-30T03:23:57;17.60;;;9.15;;
67696;SDS011;54486;51.442;6.778;2023-04-30T03:26:24;17.38;;;8.45;;
67696;SDS011;54486;51.442;6.778;2023-04-30T03:28:52;17.63;;;8.25;;
67696;SDS011;54486;51.442;6.778;2023-04-30T03:31:21;16.23;;;8.27;;
67696;SDS011;54486;51.442;6.778;2023-04-30T03:33:48;14.50;;;7.10;;
67696;SDS011;54486;51.442;6.778;2023-04-30T03:36:15;14.03;;;7.30;;
67696;SDS011;54486;51.442;6.778;2023-04-30T03:38:42;14.57;;;6.28;;
67696;SDS011;54486;51.442;6.778;2023-04-30T03:41:10;14.75;;;6.50;;
67696;SDS011;54486;51.442;6.778;2023-04-30T03:43:37;13.68;;;6.50;;
67696;SDS011;54486;51.442;6.778;2023-04-30T03:46:03;13.57;;;6.53;;
67696;SDS011;54486;51.442;6.778;2023-04-30T03:48:31;13.45;;;6.32;;
67696;SDS011;54486;51.442;6.778;2023-04-30T03:50:58;12.82;;;6.25;;
67696;SDS011;54486;51.442;6.778;2023-04-30T03:53:25;13.43;;;6.75;;
67696;SDS011;54486;51.442;6.778;2023-04-30T03:55:52;13.85;;;6.93;;
67696;SDS011;54486;51.442;6.778;2023-04-30T03:58:20;14.20;;;7.13;;
67696;SDS011;54486;51.442;6.778;2023-04-30T04:00:47;13.63;;;6.55;;
67696;SDS011;54486;51.442;6.778;2023-04-30T04:03:14;13.50;;;6.50;;
67696;SDS011;54486;51.442;6.778;2023-04-30T04:05:42;13.65;;;6.53;;
67696;SDS011;54486;51.442;6.778;2023-04-30T04:08:09;12.80;;;6.78;;
67696;SDS011;54486;51.442;6.778;2023-04-30T04:10:37;14.30;;;6.47;;
67696;SDS011;54486;51.442;6.778;2023-04-30T04:13:05;15.73;;;7.03;;
67696;SDS011;54486;51.442;6.778;2023-04-30T04:15:32;13.60;;;6.75;;
67696;SDS011;54486;51.442;6.778;2023-04-30T04:18:00;12.68;;;6.45;;
67696;SDS011;54486;51.442;6.778;2023-04-30T04:20:27;14.63;;;6.67;;
67696;SDS011;54486;51.442;6.778;2023-04-30T04:22:55;16.85;;;8.32;;
67696;SDS011;54486;51.442;6.778;2023-04-30T04:25:23;18.88;;;9.68;;
67696;SDS011;54486;51.442;6.778;2023-04-30T04:27:53;55.40;;;33.70;;
67696;SDS011;54486;51.442;6.778;2023-04-30T04:30:20;67.43;;;43.53;;
67696;SDS011;54486;51.442;6.778;2023-04-30T04:32:47;60.58;;;34.72;;
67696;SDS011;54486;51.442;6.778;2023-04-30T04:35:17;47.97;;;29.90;;
67696;SDS011;54486;51.442;6.778;2023-04-30T04:37:45;39.15;;;24.20;;
67696;SDS011;54486;51.442;6.778;2023-04-30T04:40:12;42.15;;;25.98;;
67696;SDS011;54486;51.442;6.778;2023-04-30T04:42:39;40.25;;;24.80;;
67696;SDS011;54486;51.442;6.778;2023-04-30T04:45:06;30.65;;;17.42;;
67696;SDS011;54486;51.442;6.778;2023-04-30T04:47:34;21.58;;;11.80;;
67696;SDS011;54486;51.442;6.778;2023-04-30T04:50:02;21.13;;;11.25;;
67696;SDS011;54486;51.442;6.778;2023-04-30T04:52:29;19.17;;;9.80;;
67696;SDS011;54486;51.442;6.778;2023-04-30T04:54:56;18.75;;;8.73;;
67696;SDS011;54486;51.442;6.778;2023-04-30T04:57:23;13.05;;;7.35;;
67696;SDS011;54486;51.442;6.778;2023-04-30T04:59:50;14.17;;;7.63;;
67696;SDS011;54486;51.442;6.778;2023-04-30T05:02:17;14.18;;;7.30;;
67696;SDS011;54486;51.442;6.778;2023-04-30T05:04:44;14.68;;;6.95;;
67696;SDS011;54486;51.442;6.778;2023-04-30T05:07:12;14.48;;;7.40;;
67696;SDS011;54486;51.442;6.778;2023-04-30T05:09:40;13.95;;;7.13;;
67696;SDS011;54486;51.442;6.778;2023-04-30T05:12:06;16.63;;;7.45;;
67696;SDS011;54486;51.442;6.778;2023-04-30T05:14:34;13.75;;;6.93;;
67696;SDS011;54486;51.442;6.778;2023-04-30T05:17:01;15.43;;;7.68;;
67696;SDS011;54486;51.442;6.778;2023-04-30T05:19:29;15.03;;;7.20;;
67696;SDS011;54486;51.442;6.778;2023-04-30T05:21:56;13.55;;;6.93;;
67696;SDS011;54486;51.442;6.778;2023-04-30T05:24:23;13.82;;;7.38;;
67696;SDS011;54486;51.442;6.778;2023-04-30T05:26:50;14.85;;;6.95;;
67696;SDS011;54486;51.442;6.778;2023-04-30T05:29:17;16.25;;;7.57;;
67696;SDS011;54486;51.442;6.778;2023-04-30T05:31:44;14.35;;;6.65;;
67696;SDS011;54486;51.442;6.778;2023-04-30T05:34:11;14.37;;;6.70;;
67696;SDS011;54486;51.442;6.778;2023-04-30T05:36:38;14.73;;;6.72;;
67696;SDS011;54486;51.442;6.778;2023-04-30T05:39:05;14.48;;;6.63;;
67696;SDS011;54486;51.442;6.778;2023-04-30T05:41:32;14.13;;;6.72;;
67696;SDS011;54486;51.442;6.778;2023-04-30T05:43:58;14.13;;;6.43;;
67696;SDS011;54486;51.442;6.778;2023-04-30T05:46:28;14.23;;;6.57;;
67696;SDS011;54486;51.442;6.778;2023-04-30T05:48:55;15.63;;;7.10;;
67696;SDS011;54486;51.442;6.778;2023-04-30T05:51:21;13.95;;;6.88;;
67696;SDS011;54486;51.442;6.778;2023-04-30T05:53:48;13.65;;;6.88;;
67696;SDS011;54486;51.442;6.778;2023-04-30T05:56:16;13.10;;;7.05;;
67696;SDS011;54486;51.442;6.778;2023-04-30T05:58:43;14.15;;;6.50;;
67696;SDS011;54486;51.442;6.778;2023-04-30T06:01:10;12.88;;;6.32;;
67696;SDS011;54486;51.442;6.778;2023-04-30T06:03:37;14.32;;;7.43;;
67696;SDS011;54486;51.442;6.778;2023-04-30T06:06:05;14.43;;;7.03;;
67696;SDS011;54486;51.442;6.778;2023-04-30T06:08:32;14.02;;;7.60;;
67696;SDS011;54486;51.442;6.778;2023-04-30T06:10:59;13.95;;;6.38;;
67696;SDS011;54486;51.442;6.778;2023-04-30T06:13:26;13.57;;;7.10;;
67696;SDS011;54486;51.442;6.778;2023-04-30T06:15:53;14.77;;;7.22;;
67696;SDS011;54486;51.442;6.778;2023-04-30T06:18:20;14.90;;;7.20;;
67696;SDS011;54486;51.442;6.778;2023-04-30T06:20:47;13.75;;;6.68;;
67696;SDS011;54486;51.442;6.778;2023-04-30T06:23:14;14.83;;;6.90;;
67696;SDS011;54486;51.442;6.778;2023-04-30T06:25:41;14.40;;;6.80;;
67696;SDS011;54486;51.442;6.778;2023-04-30T06:28:08;14.52;;;6.88;;
67696;SDS011;54486;51.442;6.778;2023-04-30T06:30:35;14.20;;;7.47;;
67696;SDS011;54486;51.442;6.778;2023-04-30T06:33:02;12.82;;;6.35;;
67696;SDS011;54486;51.442;6.778;2023-04-30T06:35:29;13.38;;;6.90;;
67696;SDS011;54486;51.442;6.778;2023-04-30T06:37:56;14.70;;;7.03;;
67696;SDS011;54486;51.442;6.778;2023-04-30T06:40:23;13.00;;;6.57;;
67696;SDS011;54486;51.442;6.778;2023-04-30T06:42:50;13.13;;;6.00;;
67696;SDS011;54486;51.442;6.778;2023-04-30T06:45:17;14.05;;;6.53;;
67696;SDS011;54486;51.442;6.778;2023-04-30T06:47:44;12.82;;;6.68;;
67696;SDS011;54486;51.442;6.778;2023-04-30T06:50:13;13.32;;;6.47;;
67696;SDS011;54486;51.442;6.778;2023-04-30T06:52:41;12.80;;;6.40;;
67696;SDS011;54486;51.442;6.778;2023-04-30T06:55:09;12.00;;;6.32;;
67696;SDS011;54486;51.442;6.778;2023-04-30T06:57:37;12.60;;;6.88;;
67696;SDS011;54486;51.442;6.778;2023-04-30T07:00:05;13.05;;;6.10;;
67696;SDS011;54486;51.442;6.778;2023-04-30T07:02:33;12.60;;;6.50;;
67696;SDS011;54486;51.442;6.778;2023-04-30T07:05:00;13.57;;;6.85;;
67696;SDS011;54486;51.442;6.778;2023-04-30T07:07:27;11.45;;;5.35;;
67696;SDS011;54486;51.442;6.778;2023-04-30T07:09:55;13.20;;;6.55;;
67696;SDS011;54486;51.442;6.778;2023-04-30T07:12:22;14.40;;;6.25;;
67696;SDS011;54486;51.442;6.778;2023-04-30T07:14:49;12.57;;;6.28;;
67696;SDS011;54486;51.442;6.778;2023-04-30T07:17:16;10.80;;;5.57;;
67696;SDS011;54486;51.442;6.778;2023-04-30T07:19:43;13.23;;;5.93;;
67696;SDS011;54486;51.442;6.778;2023-04-30T07:22:12;11.48;;;5.75;;
67696;SDS011;54486;51.442;6.778;2023-04-30T07:24:39;12.52;;;5.82;;
67696;SDS011;54486;51.442;6.778;2023-04-30T07:27:09;12.65;;;6.47;;
67696;SDS011;54486;51.442;6.778;2023-04-30T07:29:36;13.02;;;5.82;;
67696;SDS011;54486;51.442;6.778;2023-04-30T07:32:03;14.80;;;6.18;;
67696;SDS011;54486;51.442;6.778;2023-04-30T07:34:34;11.95;;;5.78;;
67696;SDS011;54486;51.442;6.778;2023-04-30T07:37:01;12.30;;;5.82;;
67696;SDS011;54486;51.442;6.778;2023-04-30T07:39:28;13.80;;;6.45;;
67696;SDS011;54486;51.442;6.778;2023-04-30T07:41:56;11.95;;;5.78;;
67696;SDS011;54486;51.442;6.778;2023-04-30T07:44:25;12.63;;;5.72;;
67696;SDS011;54486;51.442;6.778;2023-04-30T07:46:54;12.25;;;5.53;;
67696;SDS011;54486;51.442;6.778;2023-04-30T07:49:24;12.40;;;5.80;;
67696;SDS011;54486;51.442;6.778;2023-04-30T07:51:57;11.95;;;5.82;;
67696;SDS011;54486;51.442;6.778;2023-04-30T07:54:27;11.60;;;5.53;;
67696;SDS011;54486;51.442;6.778;2023-04-30T07:56:58;11.00;;;5.72;;
67696;SDS011;54486;51.442;6.778;2023-04-30T07:59:25;12.35;;;5.45;;
67696;SDS011;54486;51.442;6.778;2023-04-30T08:01:52;11.57;;;5.75;;
67696;SDS011;54486;51.442;6.778;2023-04-30T08:04:19;13.13;;;5.57;;
67696;SDS011;54486;51.442;6.778;2023-04-30T08:06:46;12.70;;;5.30;;
67696;SDS011;54486;51.442;6.778;2023-04-30T08:09:13;11.27;;;5.63;;
67696;SDS011;54486;51.442;6.778;2023-04-30T08:11:41;13.07;;;5.65;;
67696;SDS011;54486;51.442;6.778;2023-04-30T08:14:08;12.40;;;5.63;;
67696;SDS011;54486;51.442;6.778;2023-04-30T08:16:34;12.20;;;5.78;;
67696;SDS011;54486;51.442;6.778;2023-04-30T08:19:02;12.38;;;5.40;;
67696;SDS011;54486;51.442;6.778;2023-04-30T08:21:36;10.95;;;5.70;;
67696;SDS011;54486;51.442;6.778;2023-04-30T08:24:05;11.20;;;5.30;;
67696;SDS011;54486;51.442;6.778;2023-04-30T08:26:32;13.05;;;5.82;;
67696;SDS011;54486;51.442;6.778;2023-04-30T08:28:59;12.77;;;5.80;;
67696;SDS011;54486;51.442;6.778;2023-04-30T08:31:35;12.30;;;5.90;;
67696;SDS011;54486;51.442;6.778;2023-04-30T08:34:03;13.55;;;5.65;;
67696;SDS011;54486;51.442;6.778;2023-04-30T08:36:29;11.75;;;5.95;;
67696;SDS011;54486;51.442;6.778;2023-04-30T08:38:57;12.30;;;5.15;;
67696;SDS011;54486;51.442;6.778;2023-04-30T08:41:24;10.97;;;5.70;;
67696;SDS011;54486;51.442;6.778;2023-04-30T08:43:52;12.25;;;5.22;;
67696;SDS011;54486;51.442;6.778;2023-04-30T08:46:19;11.82;;;5.28;;
67696;SDS011;54486;51.442;6.778;2023-04-30T08:48:48;11.48;;;5.35;;
67696;SDS011;54486;51.442;6.778;2023-04-30T08:51:15;10.93;;;5.35;;
67696;SDS011;54486;51.442;6.778;2023-04-30T08:53:42;10.93;;;5.65;;
67696;SDS011;54486;51.442;6.778;2023-04-30T08:56:11;11.02;;;5.00;;
67696;SDS011;54486;51.442;6.778;2023-04-30T08:58:39;11.23;;;5.15;;
67696;SDS011;54486;51.442;6.778;2023-04-30T09:01:06;11.43;;;5.00;;
67696;SDS011;54486;51.442;6.778;2023-04-30T09:03:35;10.27;;;4.70;;
67696;SDS011;54486;51.442;6.778;2023-04-30T09:06:03;10.90;;;4.88;;
67696;SDS011;54486;51.442;6.778;2023-04-30T09:08:40;10.52;;;5.15;;
67696;SDS011;54486;51.442;6.778;2023-04-30T09:13:49;10.13;;;4.63;;
67696;SDS011;54486;51.442;6.778;2023-04-30T09:16:27;9.52;;;4.00;;
67696;SDS011;54486;51.442;6.778;2023-04-30T09:18:59;9.52;;;4.20;;
67696;SDS011;54486;51.442;6.778;2023-04-30T09:21:33;9.55;;;4.20;;
67696;SDS011;54486;51.442;6.778;2023-04-30T09:24:01;10.02;;;4.35;;
67696;SDS011;54486;51.442;6.778;2023-04-30T09:26:34;10.38;;;4.55;;
67696;SDS011;54486;51.442;6.778;2023-04-30T09:29:03;9.20;;;4.00;;
67696;SDS011;54486;51.442;6.778;2023-04-30T09:31:35;10.05;;;4.78;;
67696;SDS011;54486;51.442;6.778;2023-04-30T09:34:04;9.80;;;4.25;;
67696;SDS011;54486;51.442;6.778;2023-04-30T09:36:31;8.53;;;3.57;;
67696;SDS011;54486;51.442;6.778;2023-04-30T09:39:09;8.73;;;3.30;;
67696;SDS011;54486;51.442;6.778;2023-04-30T09:41:40;8.75;;;3.97;;
67696;SDS011;54486;51.442;6.778;2023-04-30T09:44:08;10.32;;;4.13;;
67696;SDS011;54486;51.442;6.778;2023-04-30T09:46:52;9.40;;;3.90;;
67696;SDS011;54486;51.442;6.778;2023-04-30T09:49:19;9.50;;;3.13;;
67696;SDS011;54486;51.442;6.778;2023-04-30T09:51:54;8.95;;;3.30;;
67696;SDS011;54486;51.442;6.778;2023-04-30T09:54:26;8.25;;;2.95;;
67696;SDS011;54486;51.442;6.778;2023-04-30T09:56:55;8.13;;;3.15;;
67696;SDS011;54486;51.442;6.778;2023-04-30T09:59:27;8.67;;;3.23;;
67696;SDS011;54486;51.442;6.778;2023-04-30T10:01:59;8.50;;;3.30;;
67696;SDS011;54486;51.442;6.778;2023-04-30T10:04:34;7.95;;;3.22;;
67696;SDS011;54486;51.442;6.778;2023-04-30T10:07:03;7.57;;;2.95;;
67696;SDS011;54486;51.442;6.778;2023-04-30T10:09:34;8.97;;;2.80;;
67696;SDS011;54486;51.442;6.778;2023-04-30T10:12:07;8.32;;;2.67;;
67696;SDS011;54486;51.442;6.778;2023-04-30T10:14:41;7.03;;;2.70;;
67696;SDS011;54486;51.442;6.778;2023-04-30T10:17:13;8.53;;;2.43;;
67696;SDS011;54486;51.442;6.778;2023-04-30T10:19:44;8.27;;;2.70;;
67696;SDS011;54486;51.442;6.778;2023-04-30T10:22:13;6.72;;;1.90;;
67696;SDS011;54486;51.442;6.778;2023-04-30T10:24:42;7.17;;;2.60;;
67696;SDS011;54486;51.442;6.778;2023-04-30T10:27:10;6.88;;;2.40;;
67696;SDS011;54486;51.442;6.778;2023-04-30T10:29:38;6.80;;;2.10;;
67696;SDS011;54486;51.442;6.778;2023-04-30T10:32:05;7.00;;;2.45;;
67696;SDS011;54486;51.442;6.778;2023-04-30T10:34:49;7.22;;;2.80;;
67696;SDS011;54486;51.442;6.778;2023-04-30T10:37:30;6.45;;;2.22;;
67696;SDS011;54486;51.442;6.778;2023-04-30T10:40:00;6.10;;;2.00;;
67696;SDS011;54486;51.442;6.778;2023-04-30T10:42:33;6.38;;;2.00;;
67696;SDS011;54486;51.442;6.778;2023-04-30T10:45:01;6.75;;;2.50;;
67696;SDS011;54486;51.442;6.778;2023-04-30T10:47:29;6.97;;;2.50;;
67696;SDS011;54486;51.442;6.778;2023-04-30T10:50:03;6.18;;;2.25;;
67696;SDS011;54486;51.442;6.778;2023-04-30T10:52:31;8.20;;;2.60;;
67696;SDS011;54486;51.442;6.778;2023-04-30T10:54:58;8.50;;;2.22;;
67696;SDS011;54486;51.442;6.778;2023-04-30T10:57:30;6.40;;;2.33;;
67696;SDS011;54486;51.442;6.778;2023-04-30T11:02:40;7.28;;;2.45;;
67696;SDS011;54486;51.442;6.778;2023-04-30T11:07:48;7.37;;;2.63;;
67696;SDS011;54486;51.442;6.778;2023-04-30T11:10:20;7.70;;;2.55;;
67696;SDS011;54486;51.442;6.778;2023-04-30T11:12:48;7.05;;;2.58;;
67696;SDS011;54486;51.442;6.778;2023-04-30T11:15:17;7.00;;;2.60;;
67696;SDS011;54486;51.442;6.778;2023-04-30T11:17:48;7.90;;;3.13;;
67696;SDS011;54486;51.442;6.778;2023-04-30T11:20:19;7.07;;;2.90;;
67696;SDS011;54486;51.442;6.778;2023-04-30T11:25:39;7.53;;;2.75;;
67696;SDS011;54486;51.442;6.778;2023-04-30T11:28:14;6.85;;;2.78;;
67696;SDS011;54486;51.442;6.778;2023-04-30T11:33:24;6.93;;;2.35;;
67696;SDS011;54486;51.442;6.778;2023-04-30T11:35:54;7.05;;;2.35;;
67696;SDS011;54486;51.442;6.778;2023-04-30T11:38:25;6.85;;;2.75;;
67696;SDS011;54486;51.442;6.778;2023-04-30T11:40:57;7.72;;;2.65;;
67696;SDS011;54486;51.442;6.778;2023-04-30T11:43:26;6.53;;;2.20;;
67696;SDS011;54486;51.442;6.778;2023-04-30T11:48:39;6.60;;;2.05;;
67696;SDS011;54486;51.442;6.778;2023-04-30T11:51:14;6.25;;;2.13;;
67696;SDS011;54486;51.442;6.778;2023-04-30T11:53:49;6.40;;;1.98;;
67696;SDS011;54486;51.442;6.778;2023-04-30T11:56:17;7.13;;;2.38;;
67696;SDS011;54486;51.442;6.778;2023-04-30T11:58:48;6.13;;;2.03;;
67696;SDS011;54486;51.442;6.778;2023-04-30T12:01:16;5.60;;;1.60;;
67696;SDS011;54486;51.442;6.778;2023-04-30T12:03:49;6.33;;;1.77;;
67696;SDS011;54486;51.442;6.778;2023-04-30T12:06:22;6.90;;;2.10;;
67696;SDS011;54486;51.442;6.778;2023-04-30T12:08:51;6.90;;;2.20;;
67696;SDS011;54486;51.442;6.778;2023-04-30T12:11:24;6.78;;;2.10;;
67696;SDS011;54486;51.442;6.778;2023-04-30T12:13:53;6.45;;;1.80;;
67696;SDS011;54486;51.442;6.778;2023-04-30T12:16:23;6.18;;;1.90;;
67696;SDS011;54486;51.442;6.778;2023-04-30T12:18:51;5.40;;;1.70;;
67696;SDS011;54486;51.442;6.778;2023-04-30T12:21:19;6.03;;;2.03;;
67696;SDS011;54486;51.442;6.778;2023-04-30T12:23:48;6.70;;;2.00;;
67696;SDS011;54486;51.442;6.778;2023-04-30T12:26:15;6.40;;;2.00;;
67696;SDS011;54486;51.442;6.778;2023-04-30T12:28:45;6.60;;;2.20;;
67696;SDS011;54486;51.442;6.778;2023-04-30T12:31:13;6.72;;;2.10;;
67696;SDS011;54486;51.442;6.778;2023-04-30T12:33:41;6.27;;;1.93;;
67696;SDS011;54486;51.442;6.778;2023-04-30T12:36:10;6.30;;;2.25;;
67696;SDS011;54486;51.442;6.778;2023-04-30T12:38:42;6.77;;;2.10;;
67696;SDS011;54486;51.442;6.778;2023-04-30T12:41:12;5.47;;;1.75;;
67696;SDS011;54486;51.442;6.778;2023-04-30T12:43:41;6.13;;;2.13;;
67696;SDS011;54486;51.442;6.778;2023-04-30T12:46:08;6.35;;;1.77;;
67696;SDS011;54486;51.442;6.778;2023-04-30T12:48:42;5.55;;;1.60;;
67696;SDS011;54486;51.442;6.778;2023-04-30T12:51:18;5.85;;;1.40;;
67696;SDS011;54486;51.442;6.778;2023-04-30T12:53:45;5.80;;;1.70;;
67696;SDS011;54486;51.442;6.778;2023-04-30T12:56:12;6.28;;;1.80;;
67696;SDS011;54486;51.442;6.778;2023-04-30T12:58:43;5.97;;;1.70;;
67696;SDS011;54486;51.442;6.778;2023-04-30T13:01:15;6.38;;;2.08;;
67696;SDS011;54486;51.442;6.778;2023-04-30T13:03:43;5.57;;;1.50;;
67696;SDS011;54486;51.442;6.778;2023-04-30T13:06:12;6.10;;;1.80;;
67696;SDS011;54486;51.442;6.778;2023-04-30T13:08:40;6.47;;;2.10;;
67696;SDS011;54486;51.442;6.778;2023-04-30T13:11:23;5.70;;;1.65;;
67696;SDS011;54486;51.442;6.778;2023-04-30T13:13:52;6.53;;;1.90;;
67696;SDS011;54486;51.442;6.778;2023-04-30T13:16:22;6.07;;;1.95;;
67696;SDS011;54486;51.442;6.778;2023-04-30T13:18:53;6.10;;;2.00;;
67696;SDS011;54486;51.442;6.778;2023-04-30T13:21:21;7.07;;;2.20;;
67696;SDS011;54486;51.442;6.778;2023-04-30T13:23:50;5.95;;;1.88;;
67696;SDS011;54486;51.442;6.778;2023-04-30T13:26:20;5.67;;;1.77;;
67696;SDS011;54486;51.442;6.778;2023-04-30T13:28:48;5.38;;;1.45;;
67696;SDS011;54486;51.442;6.778;2023-04-30T13:31:16;5.70;;;1.80;;
67696;SDS011;54486;51.442;6.778;2023-04-30T13:33:43;5.50;;;1.50;;
67696;SDS011;54486;51.442;6.778;2023-04-30T13:36:11;5.72;;;1.77;;
67696;SDS011;54486;51.442;6.778;2023-04-30T13:38:38;6.03;;;1.55;;
67696;SDS011;54486;51.442;6.778;2023-04-30T13:41:05;6.80;;;1.80;;
67696;SDS011;54486;51.442;6.778;2023-04-30T13:43:32;5.95;;;1.65;;
67696;SDS011;54486;51.442;6.778;2023-04-30T13:46:00;5.50;;;1.50;;
67696;SDS011;54486;51.442;6.778;2023-04-30T13:48:27;5.88;;;1.65;;
67696;SDS011;54486;51.442;6.778;2023-04-30T13:50:55;5.22;;;1.52;;
67696;SDS011;54486;51.442;6.778;2023-04-30T13:53:21;5.47;;;1.65;;
67696;SDS011;54486;51.442;6.778;2023-04-30T13:55:48;5.85;;;1.70;;
67696;SDS011;54486;51.442;6.778;2023-04-30T13:58:15;5.40;;;1.52;;
67696;SDS011;54486;51.442;6.778;2023-04-30T14:00:43;4.95;;;1.40;;
67696;SDS011;54486;51.442;6.778;2023-04-30T14:03:10;5.88;;;1.50;;
67696;SDS011;54486;51.442;6.778;2023-04-30T14:05:38;5.75;;;1.67;;
67696;SDS011;54486;51.442;6.778;2023-04-30T14:08:05;5.35;;;1.65;;
67696;SDS011;54486;51.442;6.778;2023-04-30T14:10:32;5.77;;;1.50;;
67696;SDS011;54486;51.442;6.778;2023-04-30T14:12:59;5.85;;;1.75;;
67696;SDS011;54486;51.442;6.778;2023-04-30T14:15:26;6.13;;;1.73;;
67696;SDS011;54486;51.442;6.778;2023-04-30T14:17:56;5.60;;;1.42;;
67696;SDS011;54486;51.442;6.778;2023-04-30T14:20:23;5.93;;;1.60;;
67696;SDS011;54486;51.442;6.778;2023-04-30T14:22:51;4.80;;;1.40;;
67696;SDS011;54486;51.442;6.778;2023-04-30T14:25:18;5.28;;;1.50;;
67696;SDS011;54486;51.442;6.778;2023-04-30T14:27:45;5.07;;;1.45;;
67696;SDS011;54486;51.442;6.778;2023-04-30T14:30:13;5.27;;;1.50;;
67696;SDS011;54486;51.442;6.778;2023-04-30T14:32:40;5.20;;;1.50;;
67696;SDS011;54486;51.442;6.778;2023-04-30T14:35:07;5.32;;;1.48;;
67696;SDS011;54486;51.442;6.778;2023-04-30T14:37:36;5.50;;;1.40;;
67696;SDS011;54486;51.442;6.778;2023-04-30T14:40:03;5.38;;;1.45;;
67696;SDS011;54486;51.442;6.778;2023-04-30T14:42:32;5.07;;;1.48;;
67696;SDS011;54486;51.442;6.778;2023-04-30T14:44:59;5.23;;;1.40;;
67696;SDS011;54486;51.442;6.778;2023-04-30T14:47:26;4.80;;;1.33;;
67696;SDS011;54486;51.442;6.778;2023-04-30T14:49:54;5.32;;;1.60;;
67696;SDS011;54486;51.442;6.778;2023-04-30T14:52:25;5.32;;;1.60;;
67696;SDS011;54486;51.442;6.778;2023-04-30T14:54:51;5.88;;;1.67;;
67696;SDS011;54486;51.442;6.778;2023-04-30T14:57:19;5.60;;;1.70;;
67696;SDS011;54486;51.442;6.778;2023-04-30T14:59:46;5.78;;;1.50;;
67696;SDS011;54486;51.442;6.778;2023-04-30T15:02:16;6.10;;;1.77;;
67696;SDS011;54486;51.442;6.778;2023-04-30T15:04:44;5.35;;;1.50;;
67696;SDS011;54486;51.442;6.778;2023-04-30T15:07:14;7.20;;;2.00;;
67696;SDS011;54486;51.442;6.778;2023-04-30T15:09:42;5.03;;;1.30;;
67696;SDS011;54486;51.442;6.778;2023-04-30T15:12:11;5.47;;;1.45;;
67696;SDS011;54486;51.442;6.778;2023-04-30T15:14:37;5.95;;;1.38;;
67696;SDS011;54486;51.442;6.778;2023-04-30T15:17:04;5.25;;;1.48;;
67696;SDS011;54486;51.442;6.778;2023-04-30T15:19:31;6.33;;;1.70;;
67696;SDS011;54486;51.442;6.778;2023-04-30T15:21:58;5.55;;;1.42;;
67696;SDS011;54486;51.442;6.778;2023-04-30T15:24:27;5.50;;;1.50;;